createdAt,value
2018-11-14T00:00:52.717Z,8.50
2018-11-14T00:03:20.901Z,8.40
2018-11-14T00:05:49.037Z,8.40
2018-11-14T00:08:17.193Z,8.40
2018-11-14T00:10:45.385Z,8.40
2018-11-14T00:13:13.536Z,8.40
2018-11-14T00:15:41.698Z,8.40
2018-11-14T00:18:09.945Z,8.40
2018-11-14T00:20:38.108Z,8.30
2018-11-14T00:23:06.311Z,8.30
2018-11-14T00:25:34.485Z,8.30
2018-11-14T00:28:03.063Z,8.40
2018-11-14T00:30:31.008Z,8.40
2018-11-14T00:32:59.176Z,8.40
2018-11-14T00:35:27.337Z,8.40
2018-11-14T00:37:55.513Z,8.40
2018-11-14T00:40:23.679Z,8.30
2018-11-14T00:42:51.834Z,8.40
2018-11-14T00:45:21.112Z,8.30
2018-11-14T00:47:49.933Z,8.20
2018-11-14T00:50:18.820Z,8.30
2018-11-14T00:52:47.208Z,8.20
2018-11-14T00:55:19.511Z,8.20
2018-11-14T00:57:48.607Z,8.20
2018-11-14T01:00:18.245Z,8.20
2018-11-14T01:02:46.495Z,8.20
2018-11-14T01:05:15.323Z,8.20
2018-11-14T01:07:43.476Z,8.10
2018-11-14T01:10:14.248Z,8.20
2018-11-14T01:12:42.850Z,8.10
2018-11-14T01:15:13.978Z,8.10
2018-11-14T01:17:42.502Z,8.10
2018-11-14T01:20:12.800Z,8.20
2018-11-14T01:22:41.745Z,8.20
2018-11-14T01:25:11.044Z,8.10
2018-11-14T01:27:39.194Z,8.10
2018-11-14T01:30:13.076Z,8.10
2018-11-14T01:32:41.357Z,8.10
2018-11-14T01:35:09.689Z,8.00
2018-11-14T01:37:37.885Z,7.90
2018-11-14T01:40:10.543Z,7.90
2018-11-14T01:42:38.800Z,7.80
2018-11-14T01:45:08.813Z,7.70
2018-11-14T01:47:37.008Z,7.80
2018-11-14T01:50:15.651Z,7.70
2018-11-14T01:52:43.905Z,7.70
2018-11-14T01:55:13.560Z,7.70
2018-11-14T01:57:41.701Z,7.70
2018-11-14T02:00:12.293Z,7.70
2018-11-14T02:02:40.809Z,7.70
2018-11-14T02:05:09.579Z,7.70
2018-11-14T02:07:37.779Z,7.70
2018-11-14T02:10:08.825Z,7.70
2018-11-14T02:12:37.561Z,7.70
2018-11-14T02:15:07.377Z,7.70
2018-11-14T02:17:35.537Z,7.70
2018-11-14T02:20:04.020Z,7.70
2018-11-14T02:22:32.224Z,7.70
2018-11-14T02:25:00.398Z,7.70
2018-11-14T02:27:28.598Z,7.70
2018-11-14T02:29:56.877Z,7.70
2018-11-14T02:32:25.155Z,7.70
2018-11-14T02:34:53.342Z,7.70
2018-11-14T02:37:21.685Z,7.70
2018-11-14T02:39:49.880Z,7.70
2018-11-14T02:42:18.030Z,7.70
2018-11-14T02:44:46.185Z,7.70
2018-11-14T02:47:14.401Z,7.70
2018-11-14T02:49:42.609Z,7.70
2018-11-14T02:52:10.829Z,7.70
2018-11-14T02:54:39.002Z,7.70
2018-11-14T02:59:41.794Z,7.60
2018-11-14T03:02:09.985Z,7.60
2018-11-14T03:04:38.142Z,7.60
2018-11-14T03:07:06.313Z,7.60
2018-11-14T03:09:34.553Z,7.50
2018-11-14T03:12:02.739Z,7.50
2018-11-14T03:14:30.938Z,7.50
2018-11-14T03:16:59.082Z,7.50
2018-11-14T03:19:27.305Z,7.40
2018-11-14T03:21:55.461Z,7.40
2018-11-14T03:24:23.653Z,7.40
2018-11-14T03:26:51.812Z,7.40
2018-11-14T03:29:19.960Z,7.40
2018-11-14T03:31:48.210Z,7.30
2018-11-14T03:34:16.408Z,7.40
2018-11-14T03:36:44.555Z,7.30
2018-11-14T03:39:12.730Z,7.30
2018-11-14T03:41:40.929Z,7.20
2018-11-14T03:44:09.110Z,7.20
2018-11-14T03:46:37.275Z,7.20
2018-11-14T03:49:05.453Z,7.10
2018-11-14T03:51:33.776Z,7.10
2018-11-14T03:54:01.913Z,7.10
2018-11-14T03:56:30.081Z,7.00
2018-11-14T03:58:58.275Z,7.00
2018-11-14T04:01:26.441Z,7.00
2018-11-14T04:03:54.768Z,7.00
2018-11-14T04:06:22.924Z,6.90
2018-11-14T04:08:51.092Z,6.80
2018-11-14T04:11:19.266Z,6.90
2018-11-14T04:13:47.454Z,6.90
2018-11-14T04:16:15.619Z,6.90
2018-11-14T04:18:43.776Z,6.90
2018-11-14T04:21:11.949Z,7.00
2018-11-14T04:23:45.660Z,6.90
2018-11-14T04:26:13.910Z,6.90
2018-11-14T04:28:42.085Z,6.90
2018-11-14T04:31:10.241Z,6.80
2018-11-14T04:33:38.412Z,6.90
2018-11-14T04:36:06.584Z,6.80
2018-11-14T04:38:34.758Z,6.80
2018-11-14T04:41:02.946Z,6.70
2018-11-14T04:43:31.186Z,6.40
2018-11-14T04:45:59.331Z,6.40
2018-11-14T04:48:27.480Z,6.50
2018-11-14T04:50:55.647Z,6.50
2018-11-14T04:53:23.852Z,6.50
2018-11-14T04:55:52.033Z,6.40
2018-11-14T04:58:20.224Z,6.40
2018-11-14T05:00:48.406Z,6.40
2018-11-14T05:03:16.769Z,6.50
2018-11-14T05:05:44.924Z,6.50
2018-11-14T05:08:13.096Z,6.50
2018-11-14T05:10:41.281Z,6.50
2018-11-14T05:13:09.544Z,6.50
2018-11-14T05:15:37.634Z,6.60
2018-11-14T05:18:06.016Z,6.60
2018-11-14T05:20:34.173Z,6.60
2018-11-14T05:23:02.328Z,6.60
2018-11-14T05:25:30.496Z,6.70
2018-11-14T05:27:58.670Z,6.70
2018-11-14T05:30:26.834Z,6.80
2018-11-14T05:32:55.017Z,6.80
2018-11-14T05:35:23.194Z,6.90
2018-11-14T05:37:51.339Z,7.00
2018-11-14T05:40:20.811Z,7.00
2018-11-14T05:42:49.572Z,7.00
2018-11-14T05:45:19.281Z,7.00
2018-11-14T05:47:47.525Z,6.80
2018-11-14T05:50:16.796Z,6.80
2018-11-14T05:52:44.956Z,6.80
2018-11-14T05:55:13.786Z,6.80
2018-11-14T05:57:41.944Z,6.80
2018-11-14T06:00:23.097Z,6.90
2018-11-14T06:02:51.308Z,6.90
2018-11-14T06:05:19.508Z,6.90
2018-11-14T06:07:47.638Z,6.90
2018-11-14T06:10:15.809Z,7.00
2018-11-14T06:12:44.015Z,7.00
2018-11-14T06:15:15.480Z,7.00
2018-11-14T06:17:44.586Z,7.00
2018-11-14T06:20:16.056Z,7.00
2018-11-14T06:22:45.257Z,7.00
2018-11-14T06:25:23.389Z,7.00
2018-11-14T06:27:52.684Z,7.10
2018-11-14T06:30:21.173Z,7.10
2018-11-14T06:32:49.721Z,7.10
2018-11-14T06:35:18.477Z,7.10
2018-11-14T06:37:47.033Z,7.10
2018-11-14T06:40:15.229Z,7.10
2018-11-14T06:42:43.484Z,7.00
2018-11-14T06:45:13.477Z,7.00
2018-11-14T06:47:43.184Z,7.10
2018-11-14T06:50:12.197Z,7.00
2018-11-14T06:52:40.886Z,7.10
2018-11-14T06:55:10.813Z,7.00
2018-11-14T06:57:39.073Z,7.00
2018-11-14T07:00:09.546Z,7.00
2018-11-14T07:02:38.335Z,6.90
2018-11-14T07:05:08.041Z,6.90
2018-11-14T07:07:36.290Z,6.90
2018-11-14T07:10:04.555Z,6.90
2018-11-14T07:12:32.764Z,6.90
2018-11-14T07:15:01.001Z,6.90
2018-11-14T07:17:29.185Z,6.80
2018-11-14T07:19:57.505Z,6.80
2018-11-14T07:22:25.700Z,6.80
2018-11-14T07:24:53.866Z,6.80
2018-11-14T07:27:22.096Z,6.80
2018-11-14T07:29:50.441Z,6.80
2018-11-14T07:32:18.751Z,6.80
2018-11-14T07:34:46.888Z,6.80
2018-11-14T07:37:15.181Z,6.90
2018-11-14T07:39:43.389Z,6.90
2018-11-14T07:42:11.689Z,6.90
2018-11-14T07:44:39.932Z,6.90
2018-11-14T07:47:08.132Z,6.90
2018-11-14T07:49:36.336Z,7.00
2018-11-14T07:52:04.696Z,7.00
2018-11-14T07:54:33.139Z,7.10
2018-11-14T07:57:01.258Z,7.20
2018-11-14T07:59:29.427Z,7.20
2018-11-14T08:01:57.692Z,7.30
2018-11-14T08:04:25.856Z,7.30
2018-11-14T08:06:54.237Z,7.40
2018-11-14T08:09:22.683Z,7.20
2018-11-14T08:11:50.868Z,7.20
2018-11-14T08:14:19.404Z,7.30
2018-11-14T08:16:47.569Z,7.20
2018-11-14T08:19:15.711Z,7.30
2018-11-14T08:21:43.849Z,7.40
2018-11-14T08:24:12.008Z,7.30
2018-11-14T08:26:40.188Z,7.30
2018-11-14T08:29:08.392Z,7.40
2018-11-14T08:31:36.568Z,7.50
2018-11-14T08:34:04.941Z,7.50
2018-11-14T08:36:33.133Z,7.70
2018-11-14T08:39:01.294Z,7.80
2018-11-14T08:41:29.457Z,7.90
2018-11-14T08:43:57.700Z,7.90
2018-11-14T08:46:25.845Z,8.00
2018-11-14T08:48:54.009Z,7.90
2018-11-14T08:51:22.214Z,8.00
2018-11-14T08:53:50.347Z,8.00
2018-11-14T08:56:18.508Z,8.10
2018-11-14T08:58:46.686Z,8.10
2018-11-14T09:01:14.845Z,8.20
2018-11-14T09:03:43.036Z,8.20
2018-11-14T09:06:11.224Z,8.20
2018-11-14T09:08:39.383Z,8.20
2018-11-14T09:11:07.667Z,8.20
2018-11-14T09:13:35.748Z,8.20
2018-11-14T09:16:03.889Z,8.20
2018-11-14T09:18:32.117Z,8.20
2018-11-14T09:21:00.214Z,8.20
2018-11-14T09:23:28.361Z,8.20
2018-11-14T09:25:56.570Z,8.10
2018-11-14T09:28:24.747Z,8.10
2018-11-14T09:30:52.928Z,8.10
2018-11-14T09:33:21.230Z,8.10
2018-11-14T09:35:49.377Z,8.10
2018-11-14T09:38:17.530Z,8.10
2018-11-14T09:40:45.738Z,8.10
2018-11-14T09:43:13.868Z,8.10
2018-11-14T09:45:42.063Z,8.10
2018-11-14T09:48:10.237Z,8.10
2018-11-14T09:50:38.448Z,8.10
2018-11-14T09:53:06.831Z,8.20
2018-11-14T09:55:34.965Z,8.20
2018-11-14T09:58:03.151Z,8.20
2018-11-14T10:00:32.620Z,8.20
2018-11-14T10:03:02.931Z,8.30
2018-11-14T10:05:31.013Z,8.40
2018-11-14T10:07:59.227Z,8.40
2018-11-14T10:10:27.353Z,8.50
2018-11-14T10:12:55.505Z,8.60
2018-11-14T10:15:24.346Z,8.60
2018-11-14T10:17:52.492Z,8.70
2018-11-14T10:20:21.945Z,8.70
2018-11-14T10:22:50.317Z,8.70
2018-11-14T10:25:18.722Z,8.70
2018-11-14T10:27:47.680Z,8.70
2018-11-14T10:30:21.453Z,8.70
2018-11-14T10:32:50.025Z,8.70
2018-11-14T10:35:18.361Z,8.70
2018-11-14T10:37:46.615Z,8.60
2018-11-14T10:40:17.450Z,8.60
2018-11-14T10:42:45.829Z,8.60
2018-11-14T10:45:21.416Z,8.70
2018-11-14T10:47:54.126Z,8.60
2018-11-14T10:50:23.677Z,8.80
2018-11-14T10:52:51.829Z,8.80
2018-11-14T10:55:20.526Z,8.80
2018-11-14T10:57:48.739Z,8.90
2018-11-14T11:00:27.636Z,8.90
2018-11-14T11:03:01.565Z,8.90
2018-11-14T11:05:35.230Z,8.90
2018-11-14T11:08:09.158Z,8.90
2018-11-14T11:10:42.564Z,8.80
2018-11-14T11:13:16.329Z,8.80
2018-11-14T11:15:50.227Z,8.80
2018-11-14T11:18:19.450Z,8.60
2018-11-14T11:20:47.905Z,8.70
2018-11-14T11:23:16.299Z,8.70
2018-11-14T11:25:44.468Z,8.70
2018-11-14T11:28:12.684Z,8.70
2018-11-14T11:30:40.891Z,8.80
2018-11-14T11:33:09.141Z,8.90
2018-11-14T11:35:37.317Z,9.00
2018-11-14T11:38:05.737Z,9.00
2018-11-14T11:40:34.245Z,9.10
2018-11-14T11:43:03.455Z,9.20
2018-11-14T11:45:32.009Z,9.30
2018-11-14T11:48:00.199Z,9.40
2018-11-14T11:50:28.662Z,9.40
2018-11-14T11:52:56.970Z,9.40
2018-11-14T11:55:25.111Z,9.40
2018-11-14T11:57:53.436Z,9.40
2018-11-14T12:00:21.804Z,9.30
2018-11-14T12:02:49.876Z,9.40
2018-11-14T12:05:18.043Z,9.40
2018-11-14T12:07:46.486Z,9.40
2018-11-14T12:10:15.169Z,9.50
2018-11-14T12:12:44.309Z,9.50
2018-11-14T12:15:13.259Z,9.60
2018-11-14T12:17:42.183Z,9.60
2018-11-14T12:20:11.931Z,9.70
2018-11-14T12:22:40.896Z,9.70
2018-11-14T12:25:10.950Z,9.70
2018-11-14T12:27:39.182Z,9.70
2018-11-14T12:30:09.849Z,9.80
2018-11-14T12:32:38.347Z,9.90
2018-11-14T12:35:07.689Z,9.80
2018-11-14T12:37:35.862Z,9.90
2018-11-14T12:40:04.141Z,10.00
2018-11-14T12:42:32.321Z,10.00
2018-11-14T12:45:00.477Z,10.00
2018-11-14T12:47:28.638Z,10.00
2018-11-14T12:49:56.814Z,9.90
2018-11-14T12:52:24.998Z,9.80
2018-11-14T12:54:53.105Z,9.80
2018-11-14T12:57:21.282Z,9.80
2018-11-14T12:59:49.552Z,9.70
2018-11-14T13:02:17.684Z,9.70
2018-11-14T13:04:45.849Z,9.70
2018-11-14T13:07:14.069Z,9.70
2018-11-14T13:09:42.230Z,9.60
2018-11-14T13:12:10.401Z,9.60
2018-11-14T13:14:38.579Z,9.60
2018-11-14T13:17:06.767Z,9.50
2018-11-14T13:19:34.998Z,9.40
2018-11-14T13:22:03.238Z,9.40
2018-11-14T13:24:31.385Z,9.40
2018-11-14T13:26:59.853Z,9.40
2018-11-14T13:29:28.229Z,9.40
2018-11-14T13:31:56.417Z,9.50
2018-11-14T13:34:24.849Z,9.50
2018-11-14T13:36:53.108Z,9.50
2018-11-14T13:39:21.249Z,9.50
2018-11-14T13:41:49.445Z,9.50
2018-11-14T13:44:17.576Z,9.50
2018-11-14T13:46:45.742Z,9.50
2018-11-14T13:49:14.178Z,9.50
2018-11-14T13:51:42.094Z,9.50
2018-11-14T13:54:10.250Z,9.50
2018-11-14T13:56:38.453Z,9.50
2018-11-14T13:59:06.665Z,9.60
2018-11-14T14:01:34.973Z,9.60
2018-11-14T14:04:03.107Z,9.70
2018-11-14T14:06:31.290Z,9.70
2018-11-14T14:08:59.421Z,9.80
2018-11-14T14:11:27.830Z,9.80
2018-11-14T14:14:01.393Z,9.90
2018-11-14T14:16:29.643Z,9.90
2018-11-14T14:18:57.725Z,9.90
2018-11-14T14:21:25.911Z,10.00
2018-11-14T14:23:54.174Z,10.00
2018-11-14T14:26:22.319Z,10.00
2018-11-14T14:28:50.517Z,10.00
2018-11-14T14:31:18.745Z,10.00
2018-11-14T14:33:46.953Z,10.10
2018-11-14T14:36:15.141Z,10.00
2018-11-14T14:38:43.312Z,10.00
2018-11-14T14:41:11.564Z,10.00
2018-11-14T14:43:39.804Z,10.00
2018-11-14T14:46:07.992Z,10.10
2018-11-14T14:48:36.268Z,10.10
2018-11-14T14:51:04.766Z,10.10
2018-11-14T14:53:32.983Z,10.20
2018-11-14T14:56:01.134Z,10.20
2018-11-14T14:58:29.339Z,10.20
2018-11-14T15:00:58.404Z,10.10
2018-11-14T15:03:26.613Z,10.10
2018-11-14T15:05:54.749Z,11.20
2018-11-14T15:08:22.923Z,10.00
2018-11-14T15:10:51.064Z,9.90
2018-11-14T15:13:25.790Z,9.90
2018-11-14T15:15:53.972Z,9.80
2018-11-14T15:18:22.121Z,9.70
2018-11-14T15:20:50.258Z,9.70
2018-11-14T15:23:18.423Z,9.60
2018-11-14T15:25:46.592Z,9.50
2018-11-14T15:28:14.873Z,9.40
2018-11-14T15:30:43.045Z,9.20
2018-11-14T15:33:11.248Z,9.20
2018-11-14T15:35:39.417Z,9.10
2018-11-14T15:38:07.619Z,9.00
2018-11-14T15:40:35.793Z,8.90
2018-11-14T15:43:03.977Z,8.80
2018-11-14T15:45:32.155Z,8.80
2018-11-14T15:48:00.402Z,8.60
2018-11-14T15:50:29.660Z,8.60
2018-11-14T15:52:58.451Z,8.50
2018-11-14T15:55:26.633Z,8.50
2018-11-14T15:57:54.936Z,8.50
2018-11-14T16:00:30.204Z,8.50
2018-11-14T16:02:58.375Z,8.40
2018-11-14T16:05:27.725Z,8.40
2018-11-14T16:07:57.098Z,8.40
2018-11-14T16:10:26.229Z,8.40
2018-11-14T16:12:54.400Z,8.40
2018-11-14T16:15:28.069Z,8.30
2018-11-14T16:17:56.237Z,8.30
2018-11-14T16:20:25.316Z,8.20
2018-11-14T16:22:53.496Z,8.10
2018-11-14T16:25:22.673Z,8.10
2018-11-14T16:27:52.148Z,8.10
2018-11-14T16:30:26.464Z,8.00
2018-11-14T16:32:55.882Z,8.00
2018-11-14T16:35:24.065Z,7.90
2018-11-14T16:37:52.264Z,8.00
2018-11-14T16:40:21.748Z,7.90
2018-11-14T16:42:50.754Z,7.90
2018-11-14T16:45:19.014Z,7.90
2018-11-14T16:47:47.163Z,7.80
2018-11-14T16:50:16.547Z,7.80
2018-11-14T16:52:44.708Z,7.80
2018-11-14T16:55:14.043Z,7.80
2018-11-14T16:57:43.069Z,7.80
2018-11-14T17:00:19.754Z,7.70
2018-11-14T17:02:48.082Z,7.60
2018-11-14T17:05:16.637Z,7.60
2018-11-14T17:07:44.823Z,7.50
2018-11-14T17:10:15.148Z,7.50
2018-11-14T17:12:44.181Z,7.50
2018-11-14T17:15:13.569Z,7.50
2018-11-14T17:17:41.797Z,7.50
2018-11-14T17:20:10.875Z,7.60
2018-11-14T17:22:39.381Z,7.60
2018-11-14T17:25:08.287Z,7.60
2018-11-14T17:27:36.490Z,7.60
2018-11-14T17:30:07.023Z,7.70
2018-11-14T17:32:35.205Z,7.70
2018-11-14T17:35:03.420Z,7.70
2018-11-14T17:37:31.651Z,7.70
2018-11-14T17:39:59.821Z,7.80
2018-11-14T17:42:28.157Z,7.80
2018-11-14T17:44:56.194Z,7.90
2018-11-14T17:47:24.438Z,7.90
2018-11-14T17:49:52.553Z,7.90
2018-11-14T17:52:20.721Z,7.90
2018-11-14T17:54:48.871Z,7.90
2018-11-14T17:57:17.113Z,7.90
2018-11-14T17:59:45.262Z,8.00
2018-11-14T18:02:13.441Z,8.00
2018-11-14T18:04:41.665Z,8.00
2018-11-14T18:07:09.871Z,8.00
2018-11-14T18:09:38.018Z,8.10
2018-11-14T18:12:06.190Z,8.10
2018-11-14T18:14:34.470Z,8.10
2018-11-14T18:17:02.580Z,8.10
2018-11-14T18:19:30.739Z,8.20
2018-11-14T18:21:58.905Z,8.10
2018-11-14T18:24:27.079Z,8.20
2018-11-14T18:26:55.244Z,8.20
2018-11-14T18:29:23.433Z,8.20
2018-11-14T18:31:51.589Z,8.20
2018-11-14T18:34:19.753Z,8.20
2018-11-14T18:36:47.925Z,8.20
2018-11-14T18:39:16.134Z,8.20
2018-11-14T18:41:44.853Z,8.20
2018-11-14T18:44:13.099Z,8.20
2018-11-14T18:46:41.243Z,8.20
2018-11-14T18:49:09.441Z,8.20
2018-11-14T18:51:37.590Z,8.20
2018-11-14T18:54:05.944Z,8.20
2018-11-14T18:56:34.136Z,8.20
2018-11-14T18:59:02.334Z,8.20
2018-11-14T19:01:30.553Z,8.30
2018-11-14T19:03:58.693Z,8.30
2018-11-14T19:06:26.872Z,8.30
2018-11-14T19:08:55.033Z,8.30
2018-11-14T19:11:23.173Z,8.30
2018-11-14T19:13:52.620Z,8.40
2018-11-14T19:16:20.885Z,8.40
2018-11-14T19:18:49.138Z,8.40
2018-11-14T19:21:17.726Z,8.40
2018-11-14T19:30:44.922Z,8.40
2018-11-14T19:33:13.052Z,8.40
2018-11-14T19:35:41.222Z,8.50
2018-11-14T19:38:09.352Z,8.40
2018-11-14T19:40:38.000Z,8.50
2018-11-14T19:43:07.892Z,8.50
2018-11-14T19:45:37.200Z,8.40
2018-11-14T19:48:05.719Z,8.40
2018-11-14T19:50:33.981Z,8.40
2018-11-14T19:53:02.427Z,8.40
2018-11-14T19:55:31.211Z,8.40
2018-11-14T19:58:00.637Z,8.40
2018-11-14T20:00:30.052Z,8.40
2018-11-14T20:02:58.241Z,8.50
2018-11-14T20:05:26.427Z,8.50
2018-11-14T20:07:54.701Z,8.50
2018-11-14T20:10:26.451Z,8.50
2018-11-14T20:12:54.698Z,8.50
2018-11-14T20:15:24.196Z,8.50
2018-11-14T20:17:52.514Z,8.50
2018-11-14T20:20:24.062Z,8.50
2018-11-14T20:22:52.239Z,8.50
2018-11-14T20:25:20.537Z,8.50
2018-11-14T20:27:48.916Z,8.50
2018-11-14T20:30:21.746Z,8.50
2018-11-14T20:32:50.323Z,8.50
2018-11-14T20:35:19.540Z,8.50
2018-11-14T20:37:47.703Z,8.50
2018-11-14T20:40:17.993Z,8.50
2018-11-14T20:42:46.786Z,8.50
2018-11-14T20:45:17.434Z,8.50
2018-11-14T20:47:45.644Z,8.50
2018-11-14T20:50:16.041Z,8.40
2018-11-14T20:52:45.073Z,8.40
2018-11-14T20:55:13.726Z,8.40
2018-11-14T20:57:42.452Z,8.40
2018-11-14T21:00:19.902Z,8.40
2018-11-14T21:02:48.087Z,8.40
2018-11-14T21:05:16.250Z,8.30
2018-11-14T21:07:44.624Z,8.30
2018-11-14T21:10:13.925Z,8.30
2018-11-14T21:12:42.785Z,8.30
2018-11-14T21:15:13.914Z,8.30
2018-11-14T21:17:42.481Z,8.30
2018-11-14T21:20:10.974Z,8.30
2018-11-14T21:22:39.584Z,8.30
2018-11-14T21:25:09.244Z,8.30
2018-11-14T21:27:37.447Z,8.30
2018-11-14T21:30:08.013Z,8.40
2018-11-14T21:32:36.219Z,8.30
2018-11-14T21:35:04.801Z,8.30
2018-11-14T21:37:32.970Z,8.30
2018-11-14T21:40:01.123Z,8.30
2018-11-14T21:42:29.287Z,8.30
2018-11-14T21:44:57.491Z,8.40
2018-11-14T21:47:31.141Z,8.40
2018-11-14T21:49:59.283Z,8.30
2018-11-14T21:52:27.441Z,8.30
2018-11-14T21:54:55.607Z,8.20
2018-11-14T21:57:23.769Z,8.20
2018-11-14T21:59:51.911Z,8.10
2018-11-14T22:02:20.078Z,8.10
2018-11-14T22:04:48.248Z,8.10
2018-11-14T22:07:16.440Z,8.00
2018-11-14T22:09:44.594Z,8.00
2018-11-14T22:12:12.779Z,8.00
2018-11-14T22:14:40.924Z,8.00
2018-11-14T22:17:09.082Z,8.00
2018-11-14T22:19:37.249Z,7.90
2018-11-14T22:22:05.658Z,8.00
2018-11-14T22:24:33.794Z,8.00
2018-11-14T22:27:01.944Z,7.90
2018-11-14T22:29:30.122Z,7.90
2018-11-14T22:31:58.283Z,7.80
2018-11-14T22:34:26.432Z,7.80
2018-11-14T22:36:54.622Z,7.80
2018-11-14T22:39:22.758Z,7.80
2018-11-14T22:41:51.002Z,7.80
2018-11-14T22:44:19.166Z,7.90
2018-11-14T22:46:47.315Z,7.80
2018-11-14T22:49:15.505Z,7.70
2018-11-14T22:51:43.638Z,7.70
2018-11-14T22:54:11.827Z,7.70
2018-11-14T22:56:39.955Z,7.70
2018-11-14T22:59:08.120Z,7.70
2018-11-14T23:01:36.317Z,7.70
2018-11-14T23:04:04.657Z,7.70
2018-11-14T23:06:32.805Z,7.70
2018-11-14T23:09:00.955Z,7.70
2018-11-14T23:11:29.132Z,7.70
2018-11-14T23:13:57.280Z,7.70
2018-11-14T23:16:25.436Z,7.70
2018-11-14T23:18:53.609Z,7.60
2018-11-14T23:21:21.760Z,7.50
2018-11-14T23:23:49.915Z,7.50
2018-11-14T23:26:18.066Z,7.50
2018-11-14T23:28:46.213Z,7.50
2018-11-14T23:31:14.349Z,7.50
2018-11-14T23:33:42.540Z,7.50
2018-11-14T23:36:10.744Z,7.50
2018-11-14T23:38:38.942Z,7.50
2018-11-14T23:41:07.110Z,7.50
2018-11-14T23:43:35.433Z,7.50
2018-11-14T23:46:03.592Z,7.50
2018-11-14T23:48:32.055Z,7.60
2018-11-14T23:51:00.233Z,7.50
2018-11-14T23:53:28.665Z,7.50
2018-11-14T23:55:56.836Z,7.50
2018-11-14T23:58:25.005Z,7.50
